Vremea acum in Cugir - Romania

Vrei sa afli care e starea vremii acum in Arad - Romania? Dorim sa iti furnizam starea vremii pentru Arad - Romania. Starea vremii Arad - Romania pentru astazi.

Vremea acum in Cugir

Temperatura: 23 °C

Se simte ca: 24.8 °C
Innorat: 50 %
Precipitatii: 85 %
Presiune atmosferica: 1017 hPa
Umiditate: 53%
Vizibilitate: 10 km
Vantul bate din SSE cu 6.8 km/h

Evolutia vremii in Cugir pe ore

Ora: 16:00
Ploi pe porţiuni în apropiere
Temperatura: 26.2°C
Sansa de precipitatii: 85%
Ora Descriere Temp Se simte Precipitatii Umiditate Vant
00:00Ploi pe porţiuni în apropiere16.2°16.2°70%86%NNW 1.8 KM/H
01:00Ploi pe porţiuni în apropiere13.9°13.9°73%87%NW 2.2 KM/H
02:00Ploi pe porţiuni în apropiere11.6°11.6°75%88%NW 2.2 KM/H
03:00Parțial noros11.4°11.4°50%87%WNW 2.5 KM/H
04:00Ploi pe porţiuni în apropiere11.1°11.1°25%87%W 2.5 KM/H
05:00Parțial noros10.9°10.9°0%87%W 2.9 KM/H
06:00Parțial noros13.8°13.8°0%83%WSW 2.5 KM/H
07:00Parțial noros16.7°16.7°0%79%SW 1.8 KM/H
08:00Parțial noros19.6°19.6°0%74%SSW 1.4 KM/H
09:00Ploi pe porţiuni în apropiere21.7°21.7°23%66%SSE 2.2 KM/H
10:00Parțial noros23.7°24.2°46%58%SE 2.5 KM/H
11:00Ploi pe porţiuni în apropiere25.8°26.5°69%50%ESE 3.2 KM/H
12:00Ploi pe porţiuni în apropiere26.4°26.9°75%47%SE 3.2 KM/H
13:00Ploi pe porţiuni în apropiere27°27.2°80%45%SSE 3.6 KM/H
14:00Ploi pe porţiuni în apropiere27.6°27.6°86%42%SSW 3.6 KM/H
15:00Ploi pe porţiuni în apropiere26.9°27.2°86%46%SW 6.5 KM/H
16:00Ploi pe porţiuni în apropiere26.2°26.8°85%49%WSW 9.4 KM/H
17:00Ploi pe porţiuni în apropiere25.5°26.4°85%53%WNW 12.2 KM/H
18:00Parțial noros24.2°26.1°57%60%W 10.1 KM/H
19:00Ploi pe porţiuni în apropiere22.8°25.8°28%67%W 7.9 KM/H
20:00Parțial noros21.5°21.5°0%74%W 5.8 KM/H
21:00Ploi pe porţiuni în apropiere20.8°20.8°24%77%WSW 4.7 KM/H
22:00Parțial noros20.2°20.2°48%81%WSW 3.6 KM/H
23:00Ploi pe porţiuni în apropiere19.5°19.5°72%84%WSW 2.5 KM/H